createdAt,value
2023-04-01T00:00:34.732Z,24.03
2023-04-01T00:01:34.793Z,24.03
2023-04-01T00:02:34.838Z,24.03
2023-04-01T00:03:34.948Z,24.03
2023-04-01T00:04:34.839Z,24.03
2023-04-01T00:05:34.916Z,24.03
2023-04-01T00:06:34.811Z,24.03
2023-04-01T00:07:34.810Z,24.03
2023-04-01T00:08:34.823Z,24.03
2023-04-01T00:09:34.807Z,24.03
2023-04-01T00:10:34.873Z,24.03
2023-04-01T00:11:34.832Z,24.02
2023-04-01T00:12:34.914Z,24.03
2023-04-01T00:13:34.894Z,24.02
2023-04-01T00:14:34.872Z,24.02
2023-04-01T00:15:34.863Z,24.02
2023-04-01T00:16:34.928Z,24.02
2023-04-01T00:17:35.007Z,24.02
2023-04-01T00:18:34.914Z,24.02
2023-04-01T00:19:34.956Z,24.02
2023-04-01T00:20:34.965Z,24.02
2023-04-01T00:21:35.006Z,24.02
2023-04-01T00:22:34.985Z,24.01
2023-04-01T00:23:35.002Z,24.01
2023-04-01T00:24:34.977Z,24.01
2023-04-01T00:25:35.124Z,24.02
2023-04-01T00:26:35.008Z,24.02
2023-04-01T00:27:35.021Z,24.02
2023-04-01T00:28:35.028Z,24.01
2023-04-01T00:29:35.070Z,24.01
2023-04-01T00:30:35.092Z,24.01
2023-04-01T00:31:35.108Z,24.02
2023-04-01T00:32:35.119Z,24.01
2023-04-01T00:33:35.096Z,24.02
2023-04-01T00:34:35.135Z,24.01
2023-04-01T00:35:35.122Z,24.01
2023-04-01T00:36:35.140Z,24.01
2023-04-01T00:37:35.153Z,24.01
2023-04-01T00:38:35.189Z,24.01
2023-04-01T00:39:35.234Z,24.01
2023-04-01T00:40:35.198Z,24.01
2023-04-01T00:41:35.198Z,24.01
2023-04-01T00:42:35.253Z,24.01
2023-04-01T00:43:35.272Z,24.00
2023-04-01T00:44:35.278Z,24.00
2023-04-01T00:45:35.276Z,24.01
2023-04-01T00:46:35.375Z,24.00
2023-04-01T00:48:20.429Z,24.00
2023-04-01T00:49:20.441Z,24.00
2023-04-01T00:50:20.426Z,24.00
2023-04-01T00:51:20.406Z,24.00
2023-04-01T00:52:20.412Z,24.00
2023-04-01T00:53:20.388Z,23.99
2023-04-01T00:54:20.391Z,24.00
2023-04-01T00:55:20.371Z,23.98
2023-04-01T00:56:20.376Z,23.99
2023-04-01T00:57:20.391Z,23.99
2023-04-01T00:58:20.375Z,23.99
2023-04-01T00:59:20.365Z,23.99
2023-04-01T01:00:20.357Z,23.98
2023-04-01T01:01:20.352Z,23.99
2023-04-01T01:02:20.383Z,23.98
2023-04-01T01:03:20.371Z,23.97
2023-04-01T01:04:20.330Z,23.99
2023-04-01T01:05:20.287Z,23.98
2023-04-01T01:06:20.301Z,23.98
2023-04-01T01:07:20.309Z,23.99
2023-04-01T01:08:20.298Z,23.98
2023-04-01T01:09:20.272Z,23.99
2023-04-01T01:10:20.272Z,23.98
2023-04-01T01:11:20.603Z,23.99
2023-04-01T01:12:20.277Z,23.99
2023-04-01T01:13:20.280Z,23.99
2023-04-01T01:14:20.284Z,23.99
2023-04-01T01:15:20.241Z,23.99
2023-04-01T01:16:20.274Z,23.98
2023-04-01T01:17:20.279Z,23.98
2023-04-01T01:18:20.213Z,23.98
2023-04-01T01:19:20.224Z,23.98
2023-04-01T01:20:25.918Z,23.98
2023-04-01T01:21:21.203Z,23.98
2023-04-01T01:22:20.186Z,23.98
2023-04-01T01:23:20.216Z,23.98
2023-04-01T01:24:20.214Z,23.97
2023-04-01T01:25:20.208Z,23.98
2023-04-01T01:26:20.165Z,23.97
2023-04-01T01:27:20.169Z,23.97
2023-04-01T01:28:20.178Z,23.98
2023-04-01T01:29:20.185Z,23.97
2023-04-01T01:30:20.164Z,23.97
2023-04-01T01:31:20.199Z,23.97
2023-04-01T01:32:20.168Z,23.97
2023-04-01T01:33:20.171Z,23.97
2023-04-01T01:34:20.162Z,23.97
2023-04-01T01:35:20.135Z,23.97
2023-04-01T01:36:20.278Z,23.97
2023-04-01T01:37:20.442Z,23.97
2023-04-01T01:38:20.323Z,23.97
2023-04-01T01:39:20.099Z,23.97
2023-04-01T01:40:20.105Z,23.97
2023-04-01T01:41:20.333Z,23.97
2023-04-01T01:42:20.066Z,23.97
2023-04-01T01:43:20.073Z,23.97
2023-04-01T01:44:20.102Z,23.97
2023-04-01T01:45:20.063Z,23.97
2023-04-01T01:46:20.106Z,23.97
2023-04-01T01:47:20.112Z,23.97
2023-04-01T01:48:20.124Z,23.96
2023-04-01T01:49:20.302Z,23.97
2023-04-01T01:50:20.161Z,23.96
2023-04-01T01:51:20.197Z,23.96
2023-04-01T01:52:20.202Z,23.97
2023-04-01T01:53:20.209Z,23.96
2023-04-01T01:54:20.259Z,23.97
2023-04-01T01:55:20.298Z,23.96
2023-04-01T01:56:20.286Z,23.96
2023-04-01T01:57:20.315Z,23.96
2023-04-01T01:58:20.307Z,23.95
2023-04-01T01:59:20.333Z,23.96
2023-04-01T02:00:20.356Z,23.96
2023-04-01T02:01:20.443Z,23.95
2023-04-01T02:02:20.373Z,23.95
2023-04-01T02:03:20.425Z,23.95
2023-04-01T02:04:20.480Z,23.95
2023-04-01T02:05:20.638Z,23.95
2023-04-01T02:06:20.490Z,23.95
2023-04-01T02:07:20.501Z,23.96
2023-04-01T02:08:20.517Z,23.95
2023-04-01T02:09:20.562Z,23.95
2023-04-01T02:10:20.565Z,23.95
2023-04-01T02:11:20.599Z,23.95
2023-04-01T02:12:20.553Z,23.95
2023-04-01T02:13:20.611Z,23.95
2023-04-01T02:14:20.605Z,23.95
2023-04-01T02:15:20.645Z,23.95
2023-04-01T02:16:20.735Z,23.94
2023-04-01T02:17:20.824Z,23.95
2023-04-01T02:18:20.698Z,23.95
2023-04-01T02:19:20.752Z,23.95
2023-04-01T02:20:20.754Z,23.94
2023-04-01T02:21:20.754Z,23.94
2023-04-01T02:22:20.864Z,23.94
2023-04-01T02:23:20.882Z,23.94
2023-04-01T02:24:20.818Z,23.94
2023-04-01T02:25:20.822Z,23.94
2023-04-01T02:26:20.847Z,23.94
2023-04-01T02:27:20.885Z,23.95
2023-04-01T02:28:20.892Z,23.94
2023-04-01T02:29:20.974Z,23.94
2023-04-01T02:30:20.893Z,23.94
2023-04-01T02:31:20.956Z,23.94
2023-04-01T02:32:20.954Z,23.95
2023-04-01T02:33:20.988Z,23.94
2023-04-01T02:34:20.978Z,23.94
2023-04-01T02:35:21.014Z,23.95
2023-04-01T02:36:21.115Z,23.94
2023-04-01T02:37:21.023Z,23.94
2023-04-01T02:38:21.124Z,23.94
2023-04-01T02:39:21.085Z,23.95
2023-04-01T02:40:21.106Z,23.94
2023-04-01T02:41:21.163Z,23.94
2023-04-01T02:42:21.114Z,23.95
2023-04-01T02:43:21.184Z,23.93
2023-04-01T02:44:21.194Z,23.94
2023-04-01T02:45:21.202Z,23.93
2023-04-01T02:46:21.343Z,23.93
2023-04-01T02:47:21.347Z,23.93
2023-04-01T02:48:21.316Z,23.93
2023-04-01T02:49:21.340Z,23.93
2023-04-01T02:50:21.343Z,23.93
2023-04-01T02:51:21.348Z,23.93
2023-04-01T02:52:21.368Z,23.93
2023-04-01T02:53:21.433Z,23.93
2023-04-01T02:54:21.468Z,23.93
2023-04-01T02:55:21.479Z,23.93
2023-04-01T02:56:21.522Z,23.93
2023-04-01T02:57:21.580Z,23.93
2023-04-01T02:58:21.532Z,23.93
2023-04-01T02:59:21.643Z,23.93
2023-04-01T03:00:21.598Z,23.93
2023-04-01T03:01:21.626Z,23.93
2023-04-01T03:02:21.699Z,23.93
2023-04-01T03:03:21.669Z,23.92
2023-04-01T03:04:21.741Z,23.93
2023-04-01T03:05:21.760Z,23.93
2023-04-01T03:06:21.697Z,23.93
2023-04-01T03:07:21.718Z,23.91
2023-04-01T03:08:21.754Z,23.92
2023-04-01T03:09:21.800Z,23.93
2023-04-01T03:10:21.807Z,23.92
2023-04-01T03:11:21.839Z,23.92
2023-04-01T03:12:21.842Z,23.92
2023-04-01T03:13:21.868Z,23.92
2023-04-01T03:14:21.855Z,23.91
2023-04-01T03:15:21.906Z,23.91
2023-04-01T03:16:21.982Z,23.91
2023-04-01T03:17:21.982Z,23.91
2023-04-01T03:18:21.945Z,23.92
2023-04-01T03:19:21.977Z,23.92
2023-04-01T03:20:21.976Z,23.93
2023-04-01T03:21:21.985Z,23.92
2023-04-01T03:22:22.049Z,23.92
2023-04-01T03:23:22.080Z,23.92
2023-04-01T03:24:22.099Z,23.92
2023-04-01T03:25:22.077Z,23.91
2023-04-01T03:26:22.108Z,23.92
2023-04-01T03:27:22.115Z,23.91
2023-04-01T03:28:22.110Z,23.91
2023-04-01T03:29:22.207Z,23.91
2023-04-01T03:30:22.303Z,23.91
2023-04-01T03:31:23.745Z,23.91
2023-04-01T03:32:22.223Z,23.92
2023-04-01T03:33:22.205Z,23.91
2023-04-01T03:34:22.218Z,23.91
2023-04-01T03:35:22.267Z,23.91
2023-04-01T03:36:22.285Z,23.91
2023-04-01T03:37:22.280Z,23.91
2023-04-01T03:38:22.287Z,23.91
2023-04-01T03:39:22.286Z,23.91
2023-04-01T03:40:22.325Z,23.91
2023-04-01T03:41:22.367Z,23.90
2023-04-01T03:42:22.369Z,23.91
2023-04-01T03:43:22.396Z,23.91
2023-04-01T03:44:22.393Z,23.91
2023-04-01T03:45:22.434Z,23.91
2023-04-01T03:46:22.574Z,23.90
2023-04-01T03:47:22.501Z,23.90
2023-04-01T03:48:22.520Z,23.90
2023-04-01T03:49:22.526Z,23.90
2023-04-01T03:50:22.572Z,23.90
2023-04-01T03:51:22.573Z,23.90
2023-04-01T03:52:22.629Z,23.89
2023-04-01T03:53:22.616Z,23.89
2023-04-01T03:55:29.273Z,23.89
2023-04-01T03:56:29.242Z,23.90
2023-04-01T03:57:29.393Z,23.89
2023-04-01T03:58:29.222Z,23.89
2023-04-01T03:59:29.254Z,23.89
2023-04-01T04:00:29.218Z,23.89
2023-04-01T04:01:29.217Z,23.89
2023-04-01T04:02:29.261Z,23.90
2023-04-01T04:03:29.390Z,23.89
2023-04-01T04:04:29.246Z,23.89
2023-04-01T04:05:29.204Z,23.88
2023-04-01T04:06:29.248Z,23.88
2023-04-01T04:07:29.219Z,23.89
2023-04-01T04:08:29.190Z,23.89
2023-04-01T04:09:29.239Z,23.88
2023-04-01T04:10:29.252Z,23.89
2023-04-01T04:11:29.187Z,23.89
2023-04-01T04:12:29.171Z,23.89
2023-04-01T04:13:29.196Z,23.89
2023-04-01T04:14:29.162Z,23.88
2023-04-01T04:15:29.169Z,23.89
2023-04-01T04:16:29.296Z,23.88
2023-04-01T04:17:29.125Z,23.89
2023-04-01T04:18:29.121Z,23.88
2023-04-01T04:19:29.136Z,23.89
2023-04-01T04:20:29.141Z,23.88
2023-04-01T04:21:29.114Z,23.88
2023-04-01T04:22:29.130Z,23.89
2023-04-01T04:23:29.120Z,23.88
2023-04-01T04:24:29.112Z,23.89
2023-04-01T04:25:29.084Z,23.89
2023-04-01T04:26:29.075Z,23.89
2023-04-01T04:27:29.054Z,23.88
2023-04-01T04:28:29.068Z,23.89
2023-04-01T04:29:29.046Z,23.88
2023-04-01T04:30:29.067Z,23.88
2023-04-01T04:31:29.082Z,23.88
2023-04-01T04:32:30.069Z,23.88
2023-04-01T04:33:29.059Z,23.88
2023-04-01T04:34:29.035Z,23.88
2023-04-01T04:35:29.081Z,23.88
2023-04-01T04:36:29.019Z,23.88
2023-04-01T04:37:29.008Z,23.88
2023-04-01T04:38:29.012Z,23.88
2023-04-01T04:39:29.008Z,23.87
2023-04-01T04:40:28.971Z,23.88
2023-04-01T04:41:28.972Z,23.87
2023-04-01T04:42:28.984Z,23.88
2023-04-01T04:43:28.954Z,23.87
2023-04-01T04:44:28.921Z,23.88
2023-04-01T04:45:28.929Z,23.88
2023-04-01T04:46:28.985Z,23.87
2023-04-01T04:47:29.043Z,23.87
2023-04-01T04:48:28.913Z,23.87
2023-04-01T04:49:28.900Z,23.87
2023-04-01T04:50:28.898Z,23.87
2023-04-01T04:51:28.881Z,23.87
2023-04-01T04:52:28.901Z,23.87
2023-04-01T04:53:28.924Z,23.87
2023-04-01T04:54:28.976Z,23.87
2023-04-01T04:55:28.958Z,23.86
2023-04-01T04:56:28.982Z,23.86
2023-04-01T04:57:29.060Z,23.86
2023-04-01T04:58:29.050Z,23.87
2023-04-01T04:59:29.100Z,23.86
2023-04-01T05:00:29.074Z,23.87
2023-04-01T05:01:29.136Z,23.87
2023-04-01T05:02:29.179Z,23.87
2023-04-01T05:03:29.248Z,23.86
2023-04-01T05:04:29.222Z,23.87
2023-04-01T05:05:29.238Z,23.86
2023-04-01T05:06:29.281Z,23.86
2023-04-01T05:07:29.269Z,23.87
2023-04-01T05:08:29.322Z,23.87
2023-04-01T05:09:29.358Z,23.87
2023-04-01T05:10:29.377Z,23.87
2023-04-01T05:11:29.418Z,23.87
2023-04-01T05:12:29.455Z,23.87
2023-04-01T05:13:29.463Z,23.87
2023-04-01T05:14:29.502Z,23.87
2023-04-01T05:15:29.506Z,23.87
2023-04-01T05:16:29.547Z,23.87
2023-04-01T05:17:29.621Z,23.87
2023-04-01T05:18:29.590Z,23.86
2023-04-01T05:19:29.644Z,23.86
2023-04-01T05:20:29.656Z,23.87
2023-04-01T05:21:29.688Z,23.86
2023-04-01T05:22:29.695Z,23.86
2023-04-01T05:23:29.737Z,23.86
2023-04-01T05:24:29.782Z,23.86
2023-04-01T05:25:29.846Z,23.86
2023-04-01T05:26:29.826Z,23.86
2023-04-01T05:27:29.869Z,23.86
2023-04-01T05:28:29.873Z,23.86
2023-04-01T05:29:29.915Z,23.86
2023-04-01T05:30:29.961Z,23.86
2023-04-01T05:31:30.020Z,23.86
2023-04-01T05:32:30.042Z,23.86
2023-04-01T05:33:30.059Z,23.86
2023-04-01T05:34:30.069Z,23.86
2023-04-01T05:35:30.152Z,23.86
2023-04-01T05:36:30.121Z,23.87
2023-04-01T05:37:30.143Z,23.87
2023-04-01T05:38:30.183Z,23.86
2023-04-01T05:39:30.211Z,23.87
2023-04-01T05:40:30.277Z,23.87
2023-04-01T05:41:30.277Z,23.87
2023-04-01T05:42:30.308Z,23.87
2023-04-01T05:43:30.334Z,23.87
2023-04-01T05:44:30.330Z,23.87
2023-04-01T05:45:30.408Z,23.87
2023-04-01T05:46:30.418Z,23.87
2023-04-01T05:47:30.460Z,23.87
2023-04-01T05:48:30.446Z,23.88
2023-04-01T05:49:30.457Z,23.88
2023-04-01T05:50:30.496Z,23.88
2023-04-01T05:51:30.533Z,23.89
2023-04-01T05:52:30.546Z,23.88
2023-04-01T05:53:30.553Z,23.88
2023-04-01T05:54:30.598Z,23.89
2023-04-01T05:55:30.746Z,23.88
2023-04-01T05:56:30.635Z,23.88
2023-04-01T05:57:30.707Z,23.89
2023-04-01T05:58:30.667Z,23.89
2023-04-01T05:59:30.713Z,23.90
2023-04-01T06:00:30.694Z,23.90
2023-04-01T06:01:30.737Z,23.90
2023-04-01T06:02:30.830Z,23.90
2023-04-01T06:03:30.957Z,23.90
2023-04-01T06:04:30.894Z,23.90
2023-04-01T06:05:30.905Z,23.91
2023-04-01T06:06:30.855Z,23.91
2023-04-01T06:07:30.889Z,23.91
2023-04-01T06:08:30.938Z,23.92
2023-04-01T06:09:30.901Z,23.91
2023-04-01T06:10:30.936Z,23.91
2023-04-01T06:11:30.946Z,23.92
2023-04-01T06:12:30.966Z,23.93
2023-04-01T06:13:30.969Z,23.92
2023-04-01T06:14:31.043Z,23.94
2023-04-01T06:15:31.453Z,23.94
2023-04-01T06:16:31.080Z,23.95
2023-04-01T06:17:31.051Z,23.96
2023-04-01T06:18:31.076Z,23.97
2023-04-01T06:19:31.079Z,23.98
2023-04-01T06:20:31.101Z,23.97
2023-04-01T06:21:31.110Z,23.99
2023-04-01T06:22:31.129Z,23.98
2023-04-01T06:23:31.157Z,23.99
2023-04-01T06:24:31.145Z,23.99
2023-04-01T06:25:31.435Z,23.99
2023-04-01T06:26:31.185Z,23.99
2023-04-01T06:27:31.165Z,23.99
2023-04-01T06:28:31.203Z,24.00
2023-04-01T06:29:31.186Z,23.99
2023-04-01T06:30:31.234Z,23.99
2023-04-01T06:31:31.289Z,23.99
2023-04-01T06:32:31.514Z,23.98
2023-04-01T06:33:31.329Z,23.98
2023-04-01T06:34:31.295Z,23.99
2023-04-01T06:35:31.563Z,23.99
2023-04-01T06:36:31.343Z,24.00
2023-04-01T06:37:31.265Z,23.99
2023-04-01T06:38:31.278Z,23.99
2023-04-01T06:39:31.302Z,23.99
2023-04-01T06:40:31.322Z,23.98
2023-04-01T06:41:31.339Z,23.99
2023-04-01T06:42:31.322Z,23.99
2023-04-01T06:43:31.355Z,23.99
2023-04-01T06:44:31.358Z,24.00
2023-04-01T06:45:31.552Z,24.00
2023-04-01T06:46:31.543Z,24.00
2023-04-01T06:47:31.408Z,24.01
2023-04-01T06:48:31.427Z,24.02
2023-04-01T06:49:31.408Z,24.04
2023-04-01T06:50:31.452Z,24.03
2023-04-01T06:51:31.415Z,24.04
2023-04-01T06:52:31.427Z,24.04
2023-04-01T06:53:31.441Z,24.05
2023-04-01T06:54:31.419Z,24.05
2023-04-01T06:55:31.695Z,24.07
2023-04-01T06:56:31.458Z,24.08
2023-04-01T06:57:31.523Z,24.09
2023-04-01T06:58:31.474Z,24.11
2023-04-01T06:59:31.461Z,24.11
2023-04-01T07:00:31.687Z,24.13
2023-04-01T07:01:31.509Z,24.14
2023-04-01T07:02:31.478Z,24.14
2023-04-01T07:03:31.483Z,24.15
2023-04-01T07:04:31.493Z,24.16
2023-04-01T07:05:32.030Z,24.18
2023-04-01T07:06:31.476Z,24.17
2023-04-01T07:07:31.492Z,24.17
2023-04-01T07:08:31.479Z,24.17
2023-04-01T07:09:31.485Z,24.16
2023-04-01T07:10:31.510Z,24.16
2023-04-01T07:11:31.462Z,24.17
2023-04-01T07:12:31.476Z,24.17
2023-04-01T07:13:31.537Z,24.16
2023-04-01T07:14:31.517Z,24.17
2023-04-01T07:15:31.855Z,24.17
2023-04-01T07:16:31.538Z,24.17
2023-04-01T07:17:31.589Z,24.18
2023-04-01T07:18:31.512Z,24.18
2023-04-01T07:19:31.552Z,24.18
2023-04-01T07:20:31.556Z,24.20
2023-04-01T07:21:32.790Z,24.20
2023-04-01T07:22:31.575Z,24.20
2023-04-01T07:23:32.570Z,24.21
2023-04-01T07:24:31.604Z,24.21
2023-04-01T07:25:31.812Z,24.22
2023-04-01T07:26:31.669Z,24.24
2023-04-01T07:27:31.727Z,24.26
2023-04-01T07:28:31.752Z,24.29
2023-04-01T07:29:31.799Z,24.31
2023-04-01T07:30:31.887Z,24.32
2023-04-01T07:31:31.970Z,24.33
2023-04-01T07:32:32.858Z,24.33
2023-04-01T07:33:32.009Z,24.32
2023-04-01T07:34:32.099Z,24.32
2023-04-01T07:35:32.410Z,24.33
2023-04-01T07:36:32.239Z,24.31
2023-04-01T07:37:32.289Z,24.32
2023-04-01T07:38:32.388Z,24.32
2023-04-01T07:39:32.410Z,24.33
2023-04-01T07:40:32.449Z,24.34
2023-04-01T07:41:32.578Z,24.34
2023-04-01T07:42:32.593Z,24.34
2023-04-01T07:43:32.638Z,24.35
2023-04-01T07:44:32.674Z,24.35
2023-04-01T07:45:33.036Z,24.34
2023-04-01T07:46:32.830Z,24.34
2023-04-01T07:47:32.904Z,24.34
2023-04-01T07:48:32.916Z,24.34
2023-04-01T07:49:33.015Z,24.34
2023-04-01T07:50:33.092Z,24.33
2023-04-01T07:51:33.090Z,24.33
2023-04-01T07:52:33.179Z,24.34
2023-04-01T07:53:33.258Z,24.34
2023-04-01T07:54:33.315Z,24.34
2023-04-01T07:55:33.451Z,24.34
2023-04-01T07:56:33.412Z,24.34
2023-04-01T07:57:33.483Z,24.33
2023-04-01T07:58:33.524Z,24.33
2023-04-01T07:59:33.559Z,24.34
2023-04-01T08:00:33.632Z,24.35
2023-04-01T08:01:33.738Z,24.36
2023-04-01T08:02:33.825Z,24.39
2023-04-01T08:03:33.941Z,24.40
2023-04-01T08:04:33.886Z,24.40
2023-04-01T08:05:34.305Z,24.40
2023-04-01T08:06:34.000Z,24.42
2023-04-01T08:07:34.038Z,24.44
2023-04-01T08:08:34.119Z,24.45
2023-04-01T08:09:34.126Z,24.47
2023-04-01T08:10:34.181Z,24.46
2023-04-01T08:11:34.238Z,24.48
2023-04-01T08:12:34.310Z,24.49
2023-04-01T08:13:34.322Z,24.50
2023-04-01T08:14:34.374Z,24.51
2023-04-01T08:15:34.626Z,24.53
2023-04-01T08:16:34.481Z,24.55
2023-04-01T08:17:34.517Z,24.59
2023-04-01T08:18:34.512Z,24.61
2023-04-01T08:19:34.528Z,24.64
2023-04-01T08:20:34.609Z,24.66
2023-04-01T08:21:34.595Z,24.68
2023-04-01T08:22:34.592Z,24.69
2023-04-01T08:23:34.637Z,24.72
2023-04-01T08:24:46.479Z,24.74
2023-04-01T08:25:35.879Z,24.75
2023-04-01T08:26:34.646Z,24.78
2023-04-01T08:27:34.705Z,24.80
2023-04-01T08:28:34.644Z,24.82
2023-04-01T08:29:34.637Z,24.84
2023-04-01T08:30:34.622Z,24.87
2023-04-01T08:31:34.615Z,24.90
2023-04-01T08:32:34.644Z,24.93
2023-04-01T08:33:34.605Z,24.97
2023-04-01T08:34:34.615Z,25.00
2023-04-01T08:35:36.869Z,25.03
2023-04-01T08:36:34.625Z,25.05
2023-04-01T08:37:34.596Z,25.08
2023-04-01T08:38:34.594Z,25.10
2023-04-01T08:39:34.600Z,25.12
2023-04-01T08:40:34.571Z,25.15
2023-04-01T08:41:34.553Z,25.17
2023-04-01T08:42:34.559Z,25.20
2023-04-01T08:43:34.558Z,25.21
2023-04-01T08:44:34.544Z,25.24
2023-04-01T08:45:34.766Z,25.25
2023-04-01T08:46:34.528Z,25.27
2023-04-01T08:47:34.522Z,25.29
2023-04-01T08:48:34.545Z,25.31
2023-04-01T08:49:34.481Z,25.32
2023-04-01T08:50:34.500Z,25.35
2023-04-01T08:51:34.478Z,25.36
2023-04-01T08:52:34.501Z,25.37
2023-04-01T08:53:34.508Z,25.39
2023-04-01T08:54:34.502Z,25.41
2023-04-01T08:55:34.789Z,25.42
2023-04-01T08:56:34.424Z,25.44
2023-04-01T08:57:34.520Z,25.44
2023-04-01T08:58:34.431Z,25.46
2023-04-01T08:59:34.454Z,25.48
2023-04-01T09:00:34.438Z,25.50
2023-04-01T09:01:34.423Z,25.51
2023-04-01T09:02:34.533Z,25.53
2023-04-01T09:03:34.451Z,25.54
2023-04-01T09:04:34.537Z,25.56
2023-04-01T09:05:34.677Z,25.57
2023-04-01T09:06:34.529Z,25.57
2023-04-01T09:07:34.549Z,25.60
2023-04-01T09:08:34.669Z,25.62
2023-04-01T09:09:34.680Z,25.63
2023-04-01T09:10:34.726Z,25.64
2023-04-01T09:11:34.769Z,25.66
2023-04-01T09:12:34.856Z,25.66
2023-04-01T09:13:34.870Z,25.68
2023-04-01T09:14:34.860Z,25.69
2023-04-01T09:15:35.207Z,25.71
2023-04-01T09:16:35.014Z,25.72
2023-04-01T09:17:35.013Z,25.74
2023-04-01T09:18:35.006Z,25.74
2023-04-01T09:19:35.051Z,25.75
2023-04-01T09:20:35.126Z,25.77
2023-04-01T09:21:35.129Z,25.77
2023-04-01T09:22:35.165Z,25.78
2023-04-01T09:23:35.205Z,25.79
2023-04-01T09:24:35.254Z,25.80
2023-04-01T09:25:35.627Z,25.80
2023-04-01T09:26:35.350Z,25.81
2023-04-01T09:27:35.353Z,25.81
2023-04-01T09:28:35.382Z,25.82
2023-04-01T09:29:35.391Z,25.82
2023-04-01T09:30:35.434Z,25.83
2023-04-01T09:31:35.519Z,25.83
2023-04-01T09:32:35.560Z,25.83
2023-04-01T09:33:35.574Z,25.85
2023-04-01T09:34:35.537Z,25.86
2023-04-01T09:35:35.869Z,25.88
2023-04-01T09:36:35.631Z,25.89
2023-04-01T09:37:35.611Z,25.91
2023-04-01T09:38:35.629Z,25.91
2023-04-01T09:39:35.672Z,25.89
2023-04-01T09:40:35.687Z,25.90
2023-04-01T09:41:35.742Z,25.89
2023-04-01T09:42:35.840Z,25.88
2023-04-01T09:43:35.751Z,25.89
2023-04-01T09:44:35.809Z,25.86
2023-04-01T09:45:35.841Z,25.87
2023-04-01T09:46:35.863Z,25.89
2023-04-01T09:47:35.888Z,25.91
2023-04-01T09:48:35.900Z,25.92
2023-04-01T09:49:35.889Z,25.94
2023-04-01T09:50:35.903Z,25.94
2023-04-01T09:51:36.010Z,25.91
2023-04-01T09:52:35.976Z,25.91
2023-04-01T09:53:36.031Z,25.89
2023-04-01T09:54:36.090Z,25.90
2023-04-01T09:55:36.045Z,25.91
2023-04-01T09:56:36.051Z,25.89
2023-04-01T09:57:36.110Z,25.86
2023-04-01T09:58:36.088Z,25.85
2023-04-01T09:59:37.129Z,25.84
2023-04-01T10:00:36.137Z,25.84
2023-04-01T10:01:36.191Z,25.82
2023-04-01T10:02:36.161Z,25.81
2023-04-01T10:03:36.094Z,25.78
2023-04-01T10:04:36.072Z,25.78
2023-04-01T10:05:36.338Z,25.78
2023-04-01T10:06:36.068Z,25.75
2023-04-01T10:07:36.059Z,25.74
2023-04-01T10:08:36.033Z,25.73
2023-04-01T10:09:36.030Z,25.74
2023-04-01T10:10:36.094Z,25.74
2023-04-01T10:11:36.029Z,25.73
2023-04-01T10:12:36.011Z,25.73
2023-04-01T10:13:36.005Z,25.72
2023-04-01T10:14:36.017Z,25.71
2023-04-01T10:15:36.319Z,25.72
2023-04-01T10:16:36.064Z,25.70
2023-04-01T10:17:36.093Z,25.69
2023-04-01T10:18:36.102Z,25.67
2023-04-01T10:19:36.128Z,25.67
2023-04-01T10:20:36.221Z,25.67
2023-04-01T10:21:36.230Z,25.68
2023-04-01T10:22:36.302Z,25.68
2023-04-01T10:23:36.380Z,25.67
2023-04-01T10:24:36.333Z,25.66
2023-04-01T10:25:36.394Z,25.68
2023-04-01T10:26:36.410Z,25.69
2023-04-01T10:27:36.479Z,25.69
2023-04-01T10:28:36.538Z,25.69
2023-04-01T10:29:36.559Z,25.69
2023-04-01T10:30:36.570Z,25.69
2023-04-01T10:31:36.670Z,25.68
2023-04-01T10:32:36.688Z,25.68
2023-04-01T10:33:36.741Z,25.67
2023-04-01T10:34:36.767Z,25.67
2023-04-01T10:35:37.036Z,25.67
2023-04-01T10:36:36.842Z,25.70
2023-04-01T10:37:36.838Z,25.69
2023-04-01T10:38:36.901Z,25.70
2023-04-01T10:39:36.922Z,25.71
2023-04-01T10:40:36.976Z,25.71
2023-04-01T10:41:37.001Z,25.71
2023-04-01T10:42:37.030Z,25.72
2023-04-01T10:43:37.090Z,25.71
2023-04-01T10:44:37.139Z,25.72
2023-04-01T10:45:37.241Z,25.71
2023-04-01T10:46:37.292Z,25.71
2023-04-01T10:47:37.241Z,25.73
2023-04-01T10:48:37.266Z,25.73
2023-04-01T10:49:37.261Z,25.73
2023-04-01T10:50:37.394Z,25.73
2023-04-01T10:51:37.448Z,25.72
2023-04-01T10:52:37.392Z,25.70
2023-04-01T10:53:37.408Z,25.70
2023-04-01T10:54:37.511Z,25.73
2023-04-01T10:55:37.529Z,25.73
2023-04-01T10:56:37.564Z,25.71
2023-04-01T10:57:37.650Z,25.71
2023-04-01T10:58:37.637Z,25.69
2023-04-01T10:59:37.703Z,25.70
2023-04-01T11:00:37.720Z,25.70
2023-04-01T11:01:37.804Z,25.70
2023-04-01T11:02:37.848Z,25.71
2023-04-01T11:03:37.902Z,25.73
2023-04-01T11:04:37.836Z,25.74
2023-04-01T11:05:37.920Z,25.73
2023-04-01T11:06:37.915Z,25.76
2023-04-01T11:07:37.922Z,25.78
2023-04-01T11:08:37.963Z,25.80
2023-04-01T11:09:38.016Z,25.81
2023-04-01T11:10:38.019Z,25.81
2023-04-01T11:11:38.078Z,25.83
2023-04-01T11:12:38.088Z,25.83
2023-04-01T11:13:38.106Z,25.84
2023-04-01T11:14:38.101Z,25.87
2023-04-01T11:15:38.192Z,25.88
2023-04-01T11:16:38.191Z,25.90
2023-04-01T11:17:38.234Z,25.91
2023-04-01T11:18:38.246Z,25.93
2023-04-01T11:19:38.260Z,25.95
2023-04-01T11:20:38.282Z,25.94
2023-04-01T11:21:38.271Z,25.95
2023-04-01T11:22:38.304Z,25.96
2023-04-01T11:23:38.289Z,25.97
2023-04-01T11:24:38.320Z,25.97
2023-04-01T11:25:38.371Z,25.98
2023-04-01T11:26:38.375Z,25.99
2023-04-01T11:27:39.633Z,25.99
2023-04-01T11:28:38.410Z,25.99
2023-04-01T11:29:42.251Z,25.98
2023-04-01T11:30:39.444Z,25.97
2023-04-01T11:31:38.425Z,25.96
2023-04-01T11:32:38.502Z,25.95
2023-04-01T11:33:38.368Z,25.94
2023-04-01T11:34:38.431Z,25.93
2023-04-01T11:35:38.391Z,25.93
2023-04-01T11:36:38.475Z,25.94
2023-04-01T11:37:38.392Z,25.94
2023-04-01T11:38:38.359Z,25.93
2023-04-01T11:39:38.358Z,25.91
2023-04-01T11:40:38.379Z,25.90
2023-04-01T11:41:38.349Z,25.89
2023-04-01T11:42:38.349Z,25.88
2023-04-01T11:43:38.324Z,25.89
2023-04-01T11:44:38.326Z,25.91
2023-04-01T11:45:38.326Z,25.92
2023-04-01T11:46:38.409Z,25.92
2023-04-01T11:47:38.305Z,25.92
2023-04-01T11:48:38.334Z,25.94
2023-04-01T11:49:38.303Z,25.95
2023-04-01T11:50:38.299Z,25.94
2023-04-01T11:51:38.309Z,25.94
2023-04-01T11:52:38.289Z,25.92
2023-04-01T11:53:38.357Z,25.91
2023-04-01T11:54:38.401Z,25.90
2023-04-01T11:55:38.386Z,25.89
2023-04-01T11:56:38.393Z,25.88
2023-04-01T11:57:38.403Z,25.87
2023-04-01T11:58:38.424Z,25.85
2023-04-01T11:59:38.444Z,25.83
2023-04-01T12:00:38.486Z,25.83
2023-04-01T12:01:38.502Z,25.82
2023-04-01T12:02:38.640Z,25.82
2023-04-01T12:03:38.718Z,25.82
2023-04-01T12:04:38.679Z,25.81
2023-04-01T12:05:38.657Z,25.80
2023-04-01T12:06:38.666Z,25.80
2023-04-01T12:07:38.664Z,25.78
2023-04-01T12:08:38.743Z,25.77
2023-04-01T12:09:38.796Z,25.76
2023-04-01T12:10:38.801Z,25.75
2023-04-01T12:11:38.934Z,25.74
2023-04-01T12:12:41.531Z,25.72
2023-04-01T12:13:39.849Z,25.70
2023-04-01T12:14:38.853Z,25.70
2023-04-01T12:15:38.801Z,25.68
2023-04-01T12:16:38.849Z,25.68
2023-04-01T12:17:38.819Z,25.68
2023-04-01T12:18:38.815Z,25.66
2023-04-01T12:19:38.790Z,25.64
2023-04-01T12:20:38.811Z,25.64
2023-04-01T12:21:38.862Z,25.62
2023-04-01T12:22:38.774Z,25.61
2023-04-01T12:23:38.772Z,25.61
2023-04-01T12:24:38.777Z,25.61
2023-04-01T12:25:38.783Z,25.59
2023-04-01T12:26:38.737Z,25.58
2023-04-01T12:27:38.787Z,25.57
2023-04-01T12:28:38.878Z,25.57
2023-04-01T12:29:38.937Z,25.56
2023-04-01T12:30:38.981Z,25.55
2023-04-01T12:31:39.045Z,25.54
2023-04-01T12:32:39.076Z,25.54
2023-04-01T12:33:39.115Z,25.53
2023-04-01T12:34:39.152Z,25.53
2023-04-01T12:35:39.244Z,25.52
2023-04-01T12:36:39.223Z,25.51
2023-04-01T12:37:39.323Z,25.51
2023-04-01T12:38:39.353Z,25.51
2023-04-01T12:39:39.396Z,25.50
2023-04-01T12:40:39.479Z,25.49
2023-04-01T12:41:39.501Z,25.48
2023-04-01T12:42:39.572Z,25.47
2023-04-01T12:43:39.607Z,25.46
2023-04-01T12:44:39.626Z,25.45
2023-04-01T12:45:39.696Z,25.45
2023-04-01T12:46:39.732Z,25.44
2023-04-01T12:47:39.862Z,25.43
2023-04-01T12:48:39.867Z,25.42
2023-04-01T12:49:39.876Z,25.41
2023-04-01T12:50:39.946Z,25.40
2023-04-01T12:51:40.021Z,25.39
2023-04-01T12:52:40.160Z,25.37
2023-04-01T12:53:40.121Z,25.36
2023-04-01T12:54:40.199Z,25.36